Time;durP1;ratioP1;P1;durP2;ratioP2;P2;SDS_P1;SDS_P2;PMS_P1;PMS_P2;Temp;Humidity;BMP_temperature;BMP_pressure;BME280_temperature;BME280_humidity;BME280_pressure;Samples;Min_cycle;Max_cycle;Signal;HPM_P1;HPM_P2
2021/09/02 00:00:18;;;;;;;0.80;0.60;;;14.30;99.90;;;;;;4431982;32;20057;-64
2021/09/02 00:02:44;;;;;;;0.60;0.60;;;14.20;99.90;;;;;;4431812;32;20403;-65
2021/09/02 00:05:09;;;;;;;0.50;0.45;;;14.10;99.90;;;;;;4430732;32;20514;-66
2021/09/02 00:07:35;;;;;;;0.47;0.47;;;14.00;99.90;;;;;;4431612;32;20094;-66
2021/09/02 00:10:01;;;;;;;0.73;0.73;;;14.00;99.90;;;;;;4432198;32;20514;-65
2021/09/02 00:12:26;;;;;;;0.60;0.60;;;14.10;99.90;;;;;;4431600;32;20077;-65
2021/09/02 00:14:52;;;;;;;0.28;0.28;;;14.10;99.90;;;;;;4431166;32;20058;-66
2021/09/02 00:17:17;;;;;;;0.40;0.40;;;14.10;99.90;;;;;;4432139;32;20073;-66
2021/09/02 00:19:43;;;;;;;2.08;0.60;;;14.10;99.90;;;;;;4431747;32;20065;-65
2021/09/02 00:22:08;;;;;;;0.50;0.50;;;14.20;99.90;;;;;;4430687;32;20085;-65
2021/09/02 00:24:34;;;;;;;1.05;0.93;;;14.20;99.90;;;;;;4431063;32;20482;-66
2021/09/02 00:27:00;;;;;;;0.60;0.60;;;14.40;99.90;;;;;;4430527;32;20515;-65
2021/09/02 00:29:25;;;;;;;3.10;1.30;;;14.40;99.90;;;;;;4430680;32;20064;-66
2021/09/02 00:31:51;;;;;;;0.62;0.62;;;14.40;99.90;;;;;;4430552;32;20081;-64
2021/09/02 00:34:16;;;;;;;9.85;0.98;;;14.30;99.90;;;;;;4430493;32;20511;-65
2021/09/02 00:36:42;;;;;;;0.55;0.55;;;14.40;99.90;;;;;;4445714;32;20144;-66
2021/09/02 00:39:07;;;;;;;7.78;1.80;;;14.40;99.90;;;;;;4446343;32;20057;-66
2021/09/02 00:41:32;;;;;;;3.75;1.35;;;14.30;99.90;;;;;;4445754;32;20517;-66
2021/09/02 00:43:58;;;;;;;0.50;0.50;;;14.40;99.90;;;;;;4445573;32;20065;-65
2021/09/02 00:46:23;;;;;;;0.52;0.52;;;14.40;99.90;;;;;;4445972;32;20073;-65
2021/09/02 00:48:50;;;;;;;0.90;0.85;;;14.40;99.90;;;;;;4446085;32;20081;-65
2021/09/02 00:51:18;;;;;;;0.60;0.60;;;14.40;99.90;;;;;;4445717;32;20084;-66
2021/09/02 00:53:46;;;;;;;0.52;0.52;;;14.40;99.90;;;;;;4431910;32;20125;-66
2021/09/02 00:56:13;;;;;;;1.12;0.77;;;14.40;99.90;;;;;;4430385;32;20061;-66
2021/09/02 00:58:39;;;;;;;0.43;0.43;;;14.50;99.90;;;;;;4431765;32;20525;-66
2021/09/02 01:01:05;;;;;;;2.85;0.70;;;14.50;99.90;;;;;;4445879;32;20060;-66
2021/09/02 01:03:30;;;;;;;2.03;0.70;;;14.50;99.90;;;;;;4445112;32;20081;-66
2021/09/02 01:05:56;;;;;;;1.00;0.62;;;14.40;99.90;;;;;;4445778;32;20094;-66
2021/09/02 01:08:22;;;;;;;0.70;0.45;;;14.40;99.90;;;;;;4446567;32;20500;-65
2021/09/02 01:10:49;;;;;;;0.43;0.43;;;14.30;99.90;;;;;;4445922;32;20085;-66
2021/09/02 01:13:18;;;;;;;0.40;0.40;;;14.30;99.90;;;;;;4445040;32;20077;-65
2021/09/02 01:15:43;;;;;;;0.70;0.68;;;14.40;99.90;;;;;;4445611;32;20167;-65
2021/09/02 01:18:09;;;;;;;0.50;0.50;;;14.40;99.90;;;;;;4446495;32;20060;-66
2021/09/02 01:20:34;;;;;;;0.40;0.40;;;14.30;99.90;;;;;;4445523;32;20072;-66
2021/09/02 01:23:02;;;;;;;0.62;0.60;;;14.30;99.90;;;;;;4445430;32;20513;-66
2021/09/02 01:25:30;;;;;;;0.47;0.47;;;14.30;99.90;;;;;;4445459;32;20065;-65
2021/09/02 01:28:00;;;;;;;0.30;0.30;;;14.30;99.90;;;;;;4445950;32;20064;-66
2021/09/02 01:30:26;;;;;;;0.50;0.50;;;14.20;99.90;;;;;;4444904;32;20073;-65
2021/09/02 01:32:54;;;;;;;0.40;0.40;;;14.20;99.90;;;;;;4445221;32;20061;-66
2021/09/02 01:35:21;;;;;;;0.60;0.60;;;14.20;99.90;;;;;;4445451;32;20163;-65
2021/09/02 01:37:51;;;;;;;0.40;0.40;;;14.10;99.90;;;;;;4445505;32;20477;-66
2021/09/02 01:40:27;;;;;;;0.55;0.55;;;14.10;99.90;;;;;;4445286;32;20141;-65
2021/09/02 01:42:53;;;;;;;0.40;0.40;;;14.10;99.90;;;;;;4443406;32;20074;-65
2021/09/02 01:45:19;;;;;;;0.52;0.52;;;14.20;99.90;;;;;;4445283;32;20068;-64
2021/09/02 01:47:45;;;;;;;0.62;0.62;;;14.10;99.90;;;;;;4446777;32;20064;-66
2021/09/02 01:50:16;;;;;;;0.90;0.57;;;14.20;99.90;;;;;;4446786;32;20556;-66
2021/09/02 01:52:42;;;;;;;;;;;14.20;99.90;;;;;;4438341;32;20089;-66
2021/09/02 01:55:10;;;;;;;0.30;0.30;;;14.20;99.90;;;;;;4430414;32;20008;-66
2021/09/02 01:57:36;;;;;;;0.55;0.55;;;14.20;99.90;;;;;;4430012;32;20124;-65
2021/09/02 02:00:05;;;;;;;5.78;2.05;;;14.30;99.90;;;;;;4429431;32;20064;-66
2021/09/02 02:02:30;;;;;;;0.40;0.40;;;14.30;99.90;;;;;;4429749;32;20057;-65
2021/09/02 02:04:56;;;;;;;0.40;0.40;;;14.30;99.90;;;;;;4429630;32;20141;-65
2021/09/02 02:07:21;;;;;;;1.35;0.73;;;14.40;99.90;;;;;;4430398;32;20061;-66
2021/09/02 02:09:47;;;;;;;0.40;0.40;;;14.40;99.90;;;;;;4430062;32;20061;-65
2021/09/02 02:12:12;;;;;;;0.50;0.50;;;14.40;99.90;;;;;;4429994;32;20120;-68
2021/09/02 02:14:38;;;;;;;1.70;1.12;;;14.40;99.90;;;;;;4428787;32;20090;-65
2021/09/02 02:17:04;;;;;;;1.40;0.52;;;14.40;99.90;;;;;;4429967;32;20457;-65
2021/09/02 02:19:29;;;;;;;0.47;0.47;;;14.50;99.90;;;;;;4429985;32;20535;-65
2021/09/02 02:21:55;;;;;;;0.73;0.52;;;14.50;99.90;;;;;;4429597;32;20140;-66
2021/09/02 02:24:20;;;;;;;0.40;0.40;;;14.50;99.90;;;;;;4429149;32;20094;-65
2021/09/02 02:26:46;;;;;;;0.77;0.52;;;14.60;99.90;;;;;;4429579;32;20175;-66
2021/09/02 02:29:12;;;;;;;0.95;0.88;;;14.60;99.90;;;;;;4429503;32;20092;-66
2021/09/02 02:31:37;;;;;;;0.35;0.35;;;14.60;99.90;;;;;;4429680;32;20645;-66
2021/09/02 02:34:03;;;;;;;0.37;0.37;;;14.50;99.90;;;;;;4429293;32;20502;-66
2021/09/02 02:36:29;;;;;;;0.77;0.65;;;14.40;99.90;;;;;;4429420;32;20069;-66
2021/09/02 02:38:54;;;;;;;0.50;0.50;;;14.40;99.90;;;;;;4429467;32;20088;-65
2021/09/02 02:41:20;;;;;;;0.40;0.40;;;14.40;99.90;;;;;;4432163;32;20060;-66
2021/09/02 02:43:45;;;;;;;0.90;0.60;;;14.40;99.90;;;;;;4431297;32;20074;-66
2021/09/02 02:46:11;;;;;;;0.60;0.60;;;14.20;99.90;;;;;;4431841;32;20625;-66
2021/09/02 02:48:36;;;;;;;0.85;0.62;;;14.20;99.90;;;;;;4433216;32;20089;-65
2021/09/02 02:51:02;;;;;;;8.60;0.70;;;14.20;99.90;;;;;;4433226;32;20090;-65
2021/09/02 02:53:27;;;;;;;0.30;0.30;;;14.20;99.90;;;;;;4445138;32;20317;-66
2021/09/02 02:55:53;;;;;;;0.50;0.50;;;14.10;99.90;;;;;;4447881;32;20065;-65
2021/09/02 02:58:18;;;;;;;5.43;0.50;;;14.10;99.90;;;;;;4447322;32;20436;-66
2021/09/02 03:00:44;;;;;;;0.45;0.45;;;14.10;99.90;;;;;;4446568;32;20056;-65
2021/09/02 03:03:09;;;;;;;0.90;0.73;;;14.10;99.90;;;;;;4448290;32;20061;-65
2021/09/02 03:05:34;;;;;;;0.50;0.50;;;14.00;99.90;;;;;;4448237;32;20564;-65
2021/09/02 03:08:02;;;;;;;0.60;0.60;;;14.00;99.90;;;;;;4447554;32;20120;-65
2021/09/02 03:10:27;;;;;;;1.02;0.77;;;13.90;99.90;;;;;;4447581;32;20072;-66
2021/09/02 03:12:53;;;;;;;0.95;0.60;;;13.90;99.90;;;;;;4447960;32;20089;-66
2021/09/02 03:15:18;;;;;;;0.88;0.65;;;13.90;99.90;;;;;;4446765;32;20066;-66
2021/09/02 03:17:44;;;;;;;0.43;0.43;;;13.90;99.90;;;;;;4447029;32;20076;-65
2021/09/02 03:20:09;;;;;;;0.73;0.60;;;13.80;99.90;;;;;;4447320;32;20060;-65
2021/09/02 03:22:35;;;;;;;0.77;0.77;;;13.70;99.90;;;;;;4447818;32;20512;-66
2021/09/02 03:25:00;;;;;;;0.60;0.60;;;13.70;99.90;;;;;;4447102;32;20073;-65
2021/09/02 03:27:26;;;;;;;1.23;0.60;;;13.70;99.90;;;;;;4447251;32;20064;-65
2021/09/02 03:29:51;;;;;;;0.30;0.30;;;13.70;99.90;;;;;;4447109;32;20065;-65
2021/09/02 03:32:17;;;;;;;0.55;0.55;;;13.70;99.90;;;;;;4446868;32;20082;-66
2021/09/02 03:34:43;;;;;;;1.27;0.80;;;13.80;99.90;;;;;;4443754;32;20133;-64
2021/09/02 03:37:08;;;;;;;0.50;0.50;;;13.80;99.90;;;;;;4431518;32;20065;-65
2021/09/02 03:39:34;;;;;;;1.23;1.10;;;13.80;99.90;;;;;;4431977;32;20082;-65
2021/09/02 03:41:59;;;;;;;1.23;0.60;;;13.80;99.90;;;;;;4431971;32;20506;-66
2021/09/02 03:44:25;;;;;;;0.40;0.40;;;13.70;99.90;;;;;;4431184;32;20387;-66
2021/09/02 03:46:50;;;;;;;1.02;0.93;;;13.70;99.90;;;;;;4431375;32;20069;-66
2021/09/02 03:49:16;;;;;;;0.45;0.45;;;13.70;99.90;;;;;;4431436;32;20111;-66
2021/09/02 03:51:41;;;;;;;0.30;0.30;;;13.70;99.90;;;;;;4430776;32;20136;-65
2021/09/02 03:54:07;;;;;;;0.90;0.70;;;13.70;99.90;;;;;;4431356;32;20062;-65
2021/09/02 03:56:33;;;;;;;0.70;0.70;;;13.60;99.90;;;;;;4431026;32;20065;-66
2021/09/02 03:58:58;;;;;;;2.40;0.47;;;13.60;99.90;;;;;;4431434;32;20069;-66
2021/09/02 04:01:25;;;;;;;0.47;0.47;;;13.70;99.90;;;;;;4430496;32;20065;-66
2021/09/02 04:03:51;;;;;;;0.75;0.62;;;13.80;99.90;;;;;;4432768;32;20396;-66
2021/09/02 04:06:16;;;;;;;0.60;0.60;;;13.80;99.90;;;;;;4431122;32;20072;-65
2021/09/02 04:08:42;;;;;;;1.65;1.05;;;13.70;99.90;;;;;;4431564;32;20065;-65
2021/09/02 04:11:07;;;;;;;0.80;0.80;;;13.80;99.90;;;;;;4432337;32;20073;-66
2021/09/02 04:13:33;;;;;;;0.50;0.50;;;13.70;99.90;;;;;;4431589;32;20086;-65
2021/09/02 04:15:59;;;;;;;0.50;0.50;;;13.80;99.90;;;;;;4431620;32;20169;-65
2021/09/02 04:18:24;;;;;;;0.80;0.75;;;13.80;99.90;;;;;;4430910;32;20069;-65
2021/09/02 04:20:50;;;;;;;0.37;0.37;;;13.70;99.90;;;;;;4429239;32;20074;-65
2021/09/02 04:23:15;;;;;;;0.60;0.60;;;13.70;99.90;;;;;;4438696;32;20081;-65
2021/09/02 04:25:41;;;;;;;12.23;1.62;;;13.90;99.90;;;;;;4444008;32;20064;-65
2021/09/02 04:28:06;;;;;;;0.50;0.50;;;13.90;99.90;;;;;;4438562;32;20077;-65
2021/09/02 04:30:32;;;;;;;1.45;0.93;;;14.00;99.90;;;;;;4430583;32;20412;-65
2021/09/02 04:33:00;;;;;;;1.20;0.95;;;14.00;99.90;;;;;;4430680;32;20077;-66
2021/09/02 04:35:25;;;;;;;4.87;0.85;;;14.00;99.90;;;;;;4431571;32;20077;-65
2021/09/02 04:37:51;;;;;;;0.50;0.50;;;14.10;99.90;;;;;;4431501;32;20514;-65
2021/09/02 04:40:16;;;;;;;0.50;0.50;;;14.00;99.90;;;;;;4437218;32;20077;-66
2021/09/02 04:42:43;;;;;;;0.98;0.80;;;13.90;99.90;;;;;;4445780;32;20065;-65
2021/09/02 04:45:09;;;;;;;6.47;0.70;;;14.00;99.90;;;;;;4446471;32;20085;-65
2021/09/02 04:47:35;;;;;;;0.47;0.47;;;14.00;99.90;;;;;;4446386;32;20393;-65
2021/09/02 04:50:01;;;;;;;1.27;0.75;;;14.00;99.90;;;;;;4445983;32;20073;-65
2021/09/02 04:52:27;;;;;;;1.92;0.82;;;14.00;99.90;;;;;;4445076;32;20057;-65
2021/09/02 04:54:52;;;;;;;1.48;1.15;;;14.00;99.90;;;;;;4446602;32;20439;-65
2021/09/02 04:57:19;;;;;;;0.30;0.30;;;14.00;99.90;;;;;;4443919;32;20069;-65
2021/09/02 04:59:46;;;;;;;0.30;0.30;;;14.00;99.90;;;;;;4443418;32;20065;-66
2021/09/02 05:02:13;;;;;;;1.17;0.82;;;14.10;99.90;;;;;;4434193;32;20093;-65
2021/09/02 05:04:38;;;;;;;1.05;0.77;;;14.10;99.90;;;;;;4441175;32;20068;-66
2021/09/02 05:07:04;;;;;;;0.85;0.80;;;14.00;99.90;;;;;;4434208;32;20081;-65
2021/09/02 05:09:29;;;;;;;0.80;0.47;;;14.00;99.90;;;;;;4440795;32;20065;-65
2021/09/02 05:11:55;;;;;;;1.62;0.90;;;14.00;99.90;;;;;;4434732;32;20433;-65
2021/09/02 05:14:20;;;;;;;12.95;0.90;;;13.90;99.90;;;;;;4442227;32;20069;-65
2021/09/02 05:16:46;;;;;;;0.93;0.75;;;14.00;99.90;;;;;;4429874;32;20122;-65
2021/09/02 05:19:11;;;;;;;0.40;0.40;;;13.90;99.90;;;;;;4435475;32;20124;-65
2021/09/02 05:21:37;;;;;;;0.50;0.50;;;13.90;99.90;;;;;;4431905;32;20057;-65
2021/09/02 05:24:03;;;;;;;0.40;0.40;;;13.80;99.90;;;;;;4436932;32;20096;-65
2021/09/02 05:26:29;;;;;;;0.70;0.70;;;13.80;99.90;;;;;;4432049;32;20088;-65
2021/09/02 05:28:55;;;;;;;0.52;0.52;;;13.80;99.90;;;;;;4430170;32;20081;-65
2021/09/02 05:31:20;;;;;;;0.75;0.70;;;13.90;99.90;;;;;;4419982;32;20849;-65
2021/09/02 05:33:46;;;;;;;11.27;1.00;;;13.90;99.90;;;;;;4434417;32;20517;-66
2021/09/02 05:36:12;;;;;;;0.57;0.50;;;13.90;99.90;;;;;;4438697;32;20403;-66
2021/09/02 05:38:37;;;;;;;3.10;0.93;;;13.90;99.90;;;;;;4432829;32;20229;-66
2021/09/02 05:41:03;;;;;;;0.75;0.75;;;13.90;99.90;;;;;;4436628;32;20413;-66
2021/09/02 05:43:28;;;;;;;0.62;0.62;;;14.00;99.90;;;;;;4430519;32;20089;-65
2021/09/02 05:45:54;;;;;;;0.57;0.57;;;14.00;99.90;;;;;;4436150;32;20064;-66
2021/09/02 05:48:20;;;;;;;0.80;0.80;;;14.10;99.90;;;;;;4432385;32;20084;-65
2021/09/02 05:50:45;;;;;;;3.28;0.60;;;14.20;99.90;;;;;;4439506;32;20081;-67
2021/09/02 05:53:11;;;;;;;1.87;0.85;;;14.20;99.90;;;;;;4432574;32;20081;-65
2021/09/02 05:55:37;;;;;;;1.17;1.10;;;14.20;99.90;;;;;;4427317;32;20080;-65
2021/09/02 05:58:03;;;;;;;1.52;0.80;;;14.30;99.90;;;;;;4420910;32;20106;-65
2021/09/02 06:00:29;;;;;;;0.60;0.60;;;14.20;99.90;;;;;;4417636;32;20077;-65
2021/09/02 06:02:54;;;;;;;2.30;0.50;;;14.30;99.90;;;;;;4417552;32;20096;-65
2021/09/02 06:05:20;;;;;;;0.70;0.70;;;14.30;99.90;;;;;;4418677;32;20436;-65
2021/09/02 06:07:46;;;;;;;2.55;0.77;;;14.40;99.90;;;;;;4421349;32;20088;-65
2021/09/02 06:10:11;;;;;;;1.55;0.73;;;14.50;99.90;;;;;;4422392;32;20568;-65
2021/09/02 06:12:37;;;;;;;0.93;0.80;;;14.50;99.90;;;;;;4416459;32;20116;-65
2021/09/02 06:15:08;;;;;;;0.50;0.50;;;14.60;99.90;;;;;;4420726;32;20077;-65
2021/09/02 06:17:33;;;;;;;0.95;0.65;;;14.60;99.90;;;;;;4421460;32;20143;-65
2021/09/02 06:19:59;;;;;;;5.50;1.20;;;14.70;99.90;;;;;;4425100;32;20097;-65
2021/09/02 06:22:24;;;;;;;0.50;0.50;;;14.80;99.90;;;;;;4420085;32;76616;-65
2021/09/02 06:24:50;;;;;;;1.73;1.10;;;14.80;99.90;;;;;;4423637;32;20092;-65
2021/09/02 06:27:15;;;;;;;1.52;1.02;;;14.90;99.90;;;;;;4422815;32;20092;-65
2021/09/02 06:29:41;;;;;;;10.20;1.40;;;14.90;99.90;;;;;;4423097;32;20077;-65
2021/09/02 06:32:07;;;;;;;1.48;0.70;;;15.00;99.90;;;;;;4420533;32;20081;-65
2021/09/02 06:34:32;;;;;;;2.30;1.08;;;15.00;99.90;;;;;;4422105;32;20077;-65
2021/09/02 06:36:58;;;;;;;2.20;0.60;;;15.10;99.90;;;;;;4422239;32;20199;-65
2021/09/02 06:39:24;;;;;;;0.70;0.62;;;15.20;99.90;;;;;;4420807;32;20177;-65
2021/09/02 06:41:49;;;;;;;0.88;0.68;;;15.30;99.90;;;;;;4424086;32;21124;-65
2021/09/02 06:44:15;;;;;;;0.47;0.47;;;15.30;99.90;;;;;;4424802;32;20089;-65
2021/09/02 06:46:40;;;;;;;0.73;0.73;;;15.40;99.90;;;;;;4420651;32;20104;-65
2021/09/02 06:49:06;;;;;;;1.25;1.15;;;15.40;99.90;;;;;;4425154;32;20578;-65
2021/09/02 06:51:32;;;;;;;0.70;0.70;;;15.50;99.90;;;;;;4424750;32;20491;-65
2021/09/02 06:53:57;;;;;;;1.67;0.52;;;15.50;99.90;;;;;;4422237;32;20085;-65
2021/09/02 06:56:23;;;;;;;0.70;0.70;;;15.50;99.90;;;;;;4421991;32;20096;-65
2021/09/02 06:58:49;;;;;;;0.50;0.50;;;15.50;99.90;;;;;;4424503;32;20487;-65
2021/09/02 07:01:15;;;;;;;0.70;0.70;;;15.60;99.90;;;;;;4418782;32;20147;-65
2021/09/02 07:03:41;;;;;;;1.35;1.02;;;15.60;99.90;;;;;;4426022;32;20077;-65
2021/09/02 07:06:07;;;;;;;1.23;1.12;;;15.70;99.90;;;;;;4424090;32;20105;-65
2021/09/02 07:08:33;;;;;;;0.50;0.50;;;15.70;99.90;;;;;;4422720;32;20061;-65
2021/09/02 07:10:58;;;;;;;2.08;1.20;;;15.70;99.90;;;;;;4426492;32;20108;-65
2021/09/02 07:13:24;;;;;;;0.60;0.60;;;15.70;99.90;;;;;;4419066;32;20084;-65
2021/09/02 07:15:49;;;;;;;0.57;0.57;;;15.80;99.90;;;;;;4421254;32;20089;-65
2021/09/02 07:18:15;;;;;;;3.72;0.95;;;15.80;99.90;;;;;;4422271;32;20664;-65
2021/09/02 07:20:40;;;;;;;1.95;0.98;;;15.90;99.90;;;;;;4420972;32;20152;-65
2021/09/02 07:23:06;;;;;;;0.57;0.57;;;15.90;99.90;;;;;;4421277;32;20191;-65
2021/09/02 07:25:32;;;;;;;1.35;1.10;;;15.90;99.90;;;;;;4423059;32;20133;-65
2021/09/02 07:27:57;;;;;;;0.60;0.60;;;16.00;99.90;;;;;;4421330;32;20131;-65
2021/09/02 07:30:23;;;;;;;0.60;0.60;;;16.00;99.90;;;;;;4429036;32;20507;-65
2021/09/02 07:32:48;;;;;;;3.37;0.60;;;16.10;99.90;;;;;;4424996;32;20077;-65
2021/09/02 07:35:14;;;;;;;0.90;0.90;;;16.30;99.90;;;;;;4419113;32;20085;-65
2021/09/02 07:37:40;;;;;;;1.15;0.90;;;16.40;99.90;;;;;;4427482;32;20127;-65
2021/09/02 07:40:06;;;;;;;1.80;0.80;;;16.30;99.90;;;;;;4424617;32;20081;-65
2021/09/02 07:42:33;;;;;;;0.98;0.85;;;16.30;99.90;;;;;;4420713;32;20162;-64
2021/09/02 07:45:00;;;;;;;1.70;0.93;;;16.30;99.90;;;;;;4422710;32;20153;-64
2021/09/02 07:47:26;;;;;;;0.50;0.50;;;16.30;99.90;;;;;;4423074;32;20507;-65
2021/09/02 07:49:51;;;;;;;1.87;0.77;;;16.20;99.90;;;;;;4421865;32;20105;-65
2021/09/02 07:52:16;;;;;;;0.43;0.43;;;16.20;99.90;;;;;;4423633;32;20089;-65
2021/09/02 07:54:42;;;;;;;0.80;0.80;;;16.20;99.90;;;;;;4420263;32;20092;-65
2021/09/02 07:57:07;;;;;;;0.60;0.60;;;16.20;99.90;;;;;;4424889;32;20341;-65
2021/09/02 07:59:33;;;;;;;1.90;1.75;;;16.30;99.90;;;;;;4424032;32;20108;-65
2021/09/02 08:01:58;;;;;;;0.70;0.70;;;16.30;99.90;;;;;;4424314;32;20514;-65
2021/09/02 08:04:25;;;;;;;0.98;0.47;;;16.40;99.90;;;;;;4426281;32;20080;-65
2021/09/02 08:06:51;;;;;;;1.05;0.70;;;16.50;99.90;;;;;;4425343;32;20131;-65
2021/09/02 08:09:16;;;;;;;3.00;1.30;;;16.60;99.90;;;;;;4424435;32;20077;-64
2021/09/02 08:11:43;;;;;;;31.30;1.98;;;16.60;99.90;;;;;;4426755;32;20077;-65
2021/09/02 08:14:08;;;;;;;6.05;0.90;;;16.60;99.90;;;;;;4421412;32;20092;-65
2021/09/02 08:16:34;;;;;;;1.02;0.95;;;16.70;99.90;;;;;;4426054;32;20177;-65
2021/09/02 08:18:59;;;;;;;0.70;0.70;;;16.80;99.90;;;;;;4425667;32;20267;-65
2021/09/02 08:21:26;;;;;;;1.25;0.75;;;16.70;99.90;;;;;;4418495;32;20769;-65
2021/09/02 08:23:54;;;;;;;0.40;0.40;;;16.60;99.90;;;;;;4424454;32;20194;-65
2021/09/02 08:26:20;;;;;;;0.93;0.68;;;16.60;99.90;;;;;;4422894;32;20754;-65
2021/09/02 08:28:45;;;;;;;0.40;0.40;;;16.40;99.90;;;;;;4424057;32;20133;-65
2021/09/02 08:31:11;;;;;;;1.35;0.85;;;16.30;99.90;;;;;;4425662;32;20085;-65
2021/09/02 08:33:38;;;;;;;2.12;1.25;;;16.30;99.90;;;;;;4422319;32;20089;-65
2021/09/02 08:36:04;;;;;;;0.85;0.70;;;16.30;99.90;;;;;;4425368;32;21176;-65
2021/09/02 08:38:29;;;;;;;1.08;0.55;;;16.50;99.90;;;;;;4426181;32;20106;-65
2021/09/02 08:40:55;;;;;;;0.60;0.60;;;16.60;99.90;;;;;;4427082;32;20073;-65
2021/09/02 08:43:21;;;;;;;0.40;0.40;;;16.70;99.90;;;;;;4425099;32;20455;-65
2021/09/02 08:45:47;;;;;;;0.75;0.75;;;16.90;99.90;;;;;;4424204;32;20061;-65
2021/09/02 08:48:13;;;;;;;0.50;0.50;;;17.00;99.90;;;;;;4423614;32;20408;-65
2021/09/02 08:50:39;;;;;;;0.47;0.47;;;17.00;99.90;;;;;;4427956;32;20480;-64
2021/09/02 08:53:06;;;;;;;1.42;0.60;;;17.00;99.90;;;;;;4425686;32;20057;-65
2021/09/02 08:55:31;;;;;;;1.77;0.85;;;17.10;99.90;;;;;;4421289;32;20078;-65
2021/09/02 08:57:57;;;;;;;0.50;0.50;;;17.10;99.90;;;;;;4422110;32;20084;-65
2021/09/02 09:00:25;;;;;;;2.17;0.80;;;17.10;99.90;;;;;;4424436;32;20096;-65
2021/09/02 09:03:01;;;;;;;1.45;1.05;;;17.10;99.90;;;;;;4423882;32;20140;-65
2021/09/02 09:05:30;;;;;;;0.60;0.60;;;17.20;99.90;;;;;;4422788;32;20089;-65
2021/09/02 09:07:56;;;;;;;0.40;0.40;;;17.20;99.90;;;;;;4425045;32;20089;-65
2021/09/02 09:10:24;;;;;;;0.55;0.55;;;17.00;99.90;;;;;;4424072;32;20131;-65
2021/09/02 09:12:55;;;;;;;0.35;0.35;;;17.00;99.90;;;;;;4420461;32;20151;-65
2021/09/02 09:15:24;;;;;;;0.47;0.37;;;17.10;99.90;;;;;;4421235;32;20106;-65
2021/09/02 09:17:53;;;;;;;0.60;0.60;;;17.10;99.90;;;;;;4423656;32;20066;-65
2021/09/02 09:20:20;;;;;;;0.45;0.45;;;17.20;99.90;;;;;;4421115;32;20093;-65
2021/09/02 09:22:49;;;;;;;0.65;0.43;;;17.10;99.90;;;;;;4421936;32;20229;-64
2021/09/02 09:25:15;;;;;;;2.03;0.95;;;17.20;99.90;;;;;;4423092;32;20093;-64
2021/09/02 09:27:44;;;;;;;0.70;0.50;;;17.40;99.90;;;;;;4421277;32;20188;-64
2021/09/02 09:30:13;;;;;;;0.98;0.68;;;17.60;99.90;;;;;;4420677;32;20999;-65
2021/09/02 09:32:42;;;;;;;1.75;0.70;;;17.90;99.90;;;;;;4425097;32;20072;-65
2021/09/02 09:35:11;;;;;;;2.47;0.75;;;18.10;99.90;;;;;;4428925;32;20521;-65
2021/09/02 09:37:37;;;;;;;0.50;0.50;;;18.10;99.90;;;;;;4429527;32;20086;-65
2021/09/02 09:40:14;;;;;;;6.18;0.40;;;18.10;99.90;;;;;;4432769;32;20077;-65
2021/09/02 09:42:52;;;;;;;0.32;0.32;;;18.10;99.90;;;;;;4436149;32;20085;-65
2021/09/02 09:45:33;;;;;;;0.50;0.50;;;18.30;99.90;;;;;;4435592;32;20084;-65
2021/09/02 09:47:58;;;;;;;0.40;0.40;;;18.50;99.90;;;;;;4433353;32;20494;-65
2021/09/02 09:50:24;;;;;;;11.10;0.60;;;18.40;99.90;;;;;;4437650;32;20097;-65
2021/09/02 09:52:49;;;;;;;0.98;0.68;;;18.50;99.90;;;;;;4436271;32;20118;-65
2021/09/02 09:55:17;;;;;;;0.98;0.68;;;18.70;99.90;;;;;;4432986;32;20152;-65
2021/09/02 09:57:43;;;;;;;1.15;0.60;;;18.70;99.90;;;;;;4435587;32;20064;-65
2021/09/02 10:00:11;;;;;;;0.30;0.30;;;18.70;99.90;;;;;;4433717;32;20081;-65
2021/09/02 10:02:39;;;;;;;0.45;0.45;;;18.70;99.90;;;;;;4433805;32;20460;-65
2021/09/02 10:05:07;;;;;;;0.30;0.30;;;18.70;99.90;;;;;;4428500;32;20444;-65
2021/09/02 10:07:35;;;;;;;1.20;0.45;;;18.80;99.90;;;;;;4431987;32;20056;-65
2021/09/02 10:10:01;;;;;;;0.40;0.40;;;18.80;99.90;;;;;;4436691;32;20796;-65
2021/09/02 10:12:34;;;;;;;0.60;0.60;;;19.10;99.90;;;;;;4434413;32;20065;-65
2021/09/02 10:15:01;;;;;;;0.60;0.60;;;19.20;99.90;;;;;;4434167;32;20163;-65
2021/09/02 10:17:27;;;;;;;0.82;0.70;;;19.40;99.90;;;;;;4433091;32;20746;-65
2021/09/02 10:19:52;;;;;;;1.67;0.90;;;19.80;99.90;;;;;;4432144;32;20136;-65
2021/09/02 10:22:18;;;;;;;0.90;0.50;;;19.50;99.90;;;;;;4430782;32;20053;-64
2021/09/02 10:24:45;;;;;;;0.95;0.68;;;19.50;99.90;;;;;;4430355;32;20166;-65
2021/09/02 10:27:24;;;;;;;0.60;0.60;;;19.60;99.90;;;;;;4433042;32;20077;-64
2021/09/02 10:29:51;;;;;;;0.50;0.50;;;19.70;99.90;;;;;;4425969;32;20082;-65
2021/09/02 10:32:28;;;;;;;1.25;1.00;;;19.80;99.90;;;;;;4438690;32;20085;-66
2021/09/02 10:35:22;;;;;;;0.60;0.60;;;20.00;99.90;;;;;;4431194;32;20080;-65
2021/09/02 10:37:50;;;;;;;2.25;0.70;;;20.20;99.90;;;;;;4437003;32;20081;-65
2021/09/02 10:40:18;;;;;;;0.25;0.25;;;20.40;99.90;;;;;;4433584;32;20080;-65
2021/09/02 10:42:49;;;;;;;0.62;0.57;;;20.50;99.90;;;;;;4436719;32;20080;-64
2021/09/02 10:45:32;;;;;;;1.17;0.50;;;20.80;99.90;;;;;;4431809;32;20109;-65
2021/09/02 10:48:01;;;;;;;0.50;0.47;;;21.00;99.90;;;;;;4444030;32;20076;-65
2021/09/02 10:50:29;;;;;;;0.43;0.43;;;21.00;99.90;;;;;;4458766;26;20114;-77
2021/09/02 10:53:09;;;;;;;0.37;0.37;;;21.00;99.90;;;;;;4423559;32;20089;-78
2021/09/02 10:55:37;;;;;;;0.52;0.40;;;21.00;99.90;;;;;;4416294;32;20077;-77
2021/09/02 10:58:04;;;;;;;0.75;0.75;;;21.10;99.90;;;;;;4419146;32;20089;-77
2021/09/02 11:00:32;;;;;;;0.20;0.20;;;21.10;99.90;;;;;;4424199;32;20658;-77
2021/09/02 11:03:13;;;;;;;1.15;0.80;;;21.30;99.90;;;;;;4426356;32;20597;-77
2021/09/02 11:05:42;;;;;;;0.30;0.30;;;21.10;99.90;;;;;;4427683;32;20457;-77
2021/09/02 11:08:08;;;;;;;0.25;0.25;;;21.30;99.90;;;;;;4418984;32;20113;-77
2021/09/02 11:10:34;;;;;;;0.93;0.65;;;21.30;99.90;;;;;;4416548;32;20836;-77
2021/09/02 11:13:07;;;;;;;0.52;0.52;;;21.30;99.90;;;;;;4416314;32;20160;-78
2021/09/02 11:15:35;;;;;;;0.40;0.40;;;21.70;99.90;;;;;;4415961;32;20068;-77
2021/09/02 11:18:04;;;;;;;0.73;0.65;;;21.80;99.90;;;;;;4417410;32;20050;-78
2021/09/02 11:20:34;;;;;;;0.30;0.30;;;21.70;99.90;;;;;;4419288;32;20216;-77
2021/09/02 11:23:18;;;;;;;0.57;0.57;;;21.50;99.90;;;;;;4415562;32;20427;-77
2021/09/02 11:25:47;;;;;;;0.30;0.30;;;21.40;99.90;;;;;;4417148;32;20069;-78
2021/09/02 11:28:14;;;;;;;0.47;0.45;;;21.70;99.90;;;;;;4417940;32;20089;-78
2021/09/02 11:30:40;;;;;;;1.83;0.60;;;22.00;99.90;;;;;;4418807;32;20062;-77
2021/09/02 11:33:07;;;;;;;1.10;0.82;;;22.20;99.90;;;;;;4418628;32;20399;-78
2021/09/02 11:35:34;;;;;;;2.42;0.40;;;22.50;99.90;;;;;;4418595;32;20589;-77
2021/09/02 11:38:00;;;;;;;0.47;0.45;;;22.70;99.90;;;;;;4416767;32;20066;-77
2021/09/02 11:40:28;;;;;;;0.35;0.35;;;22.90;99.90;;;;;;4417800;32;20409;-78
2021/09/02 11:42:55;;;;;;;0.28;0.28;;;22.70;99.90;;;;;;4416872;32;20061;-77
2021/09/02 11:45:23;;;;;;;0.52;0.52;;;22.70;99.90;;;;;;4412747;32;20492;-77
2021/09/02 11:47:50;;;;;;;0.55;0.35;;;22.70;99.90;;;;;;4403956;32;20057;-77
2021/09/02 11:50:17;;;;;;;0.37;0.30;;;22.90;99.90;;;;;;4412902;32;20460;-77
2021/09/02 11:52:52;;;;;;;0.50;0.50;;;23.10;99.90;;;;;;4414350;32;20070;-78
2021/09/02 11:55:34;;;;;;;0.20;0.20;;;23.30;99.90;;;;;;4416850;32;20129;-78
2021/09/02 11:58:02;;;;;;;3.55;0.60;;;23.40;99.90;;;;;;4419933;32;20477;-78
2021/09/02 12:00:30;;;;;;;0.10;0.10;;;23.70;99.90;;;;;;4419296;32;20280;-78
2021/09/02 12:02:57;;;;;;;0.17;0.17;;;24.20;99.90;;;;;;4415965;32;20073;-78
2021/09/02 12:05:26;;;;;;;2.20;0.25;;;24.80;99.90;;;;;;4422421;32;20089;-78
2021/09/02 12:07:55;;;;;;;0.45;0.45;;;25.10;99.90;;;;;;4420900;32;20085;-78
2021/09/02 12:10:21;;;;;;;0.17;0.17;;;25.30;99.90;;;;;;4415435;32;20085;-78
2021/09/02 12:12:47;;;;;;;0.20;0.20;;;25.10;99.90;;;;;;4415357;32;20086;-78
2021/09/02 12:15:25;;;;;;;0.52;0.32;;;24.90;99.90;;;;;;4416832;32;20117;-77
2021/09/02 12:18:09;;;;;;;0.52;0.30;;;24.80;99.90;;;;;;4414750;32;20073;-77
2021/09/02 12:20:39;;;;;;;0.10;0.10;;;25.00;99.90;;;;;;4420305;32;20090;-78
2021/09/02 12:23:22;;;;;;;0.62;0.37;;;25.40;99.90;;;;;;4413672;32;20129;-77
2021/09/02 12:25:57;;;;;;;0.90;0.40;;;25.60;99.90;;;;;;4418626;32;20810;-78
2021/09/02 12:28:34;;;;;;;0.30;0.30;;;25.90;99.90;;;;;;4416663;32;20085;-78
2021/09/02 12:31:13;;;;;;;3.72;0.28;;;26.00;99.90;;;;;;4415704;32;20573;-77
2021/09/02 12:33:54;;;;;;;0.35;0.35;;;25.70;99.90;;;;;;4417600;32;20073;-79
2021/09/02 12:36:19;;;;;;;6.65;0.30;;;25.80;99.90;;;;;;4415575;32;20074;-80
2021/09/02 12:38:45;;;;;;;0.32;0.20;;;25.60;99.90;;;;;;4415919;32;20090;-80
2021/09/02 12:41:20;;;;;;;0.10;0.10;;;25.90;99.90;;;;;;4422937;32;20138;-82
2021/09/02 12:44:07;;;;;;;4.37;0.82;;;26.40;99.90;;;;;;4414727;32;20086;-79
2021/09/02 12:46:56;;;;;;;0.32;0.32;;;26.70;99.90;;;;;;4416274;32;20080;-78